Free Maverick — A8GH3 — position and weather

sailwx.info

Track history (hours):
 
Tides and Currents Weather Stations Pressure Air Temp Water Temp Dewpoint Dewpoint Depression Visibility Wind Speed Wind Dir Waves Ship Positions

Free Maverick

Last reported at 2014-Nov-22 16:20 UTC. Time now 2014-Nov-26 11:17 UTC.
Position N 35°58' W 005°38'.

Length 153 m; draft 9.5 m.

Type: Cargo ship. MMSI: 636013999.

Date/timePositionNaut miles runAvg speedWind from/ knotsBaromVisibWave heightAir tempDewpointWater temp
2014-Nov-22 16:20N 35°58' W 005°38'911.2
2014-Nov-22 15:32N 36°01' W 005°27'9 8.6
2014-Nov-22 14:32N 36°08' W 005°22'0 0.3
2014-Nov-22 13:19N 36°09' W 005°22'0 0.1
2014-Nov-22 12:31N 36°08' W 005°22'0 0.1
2014-Nov-22 11:28N 36°09' W 005°22'0 0.0
2014-Nov-22 10:28N 36°09' W 005°22'0 0.2
2014-Nov-22 09:31N 36°08' W 005°22'0 0.1
2014-Nov-22 08:28N 36°08' W 005°22'0 0.0
2014-Nov-22 07:25N 36°08' W 005°22'0 0.0
2014-Nov-22 06:16N 36°08' W 005°22'0 0.1
2014-Nov-22 04:31N 36°09' W 005°22'0 0.1
2014-Nov-22 03:31N 36°09' W 005°22'0 0.1
2014-Nov-22 02:22N 36°08' W 005°22'0 0.0
2014-Nov-22 01:28N 36°08' W 005°22'0 0.0
2014-Nov-21 23:13N 36°08' W 005°22'0 0.0
2014-Nov-21 22:28N 36°08' W 005°22'0 0.0
2014-Nov-21 18:14N 36°08' W 005°22'3 4.8
2014-Nov-21 17:33N 36°06' W 005°20'8 0.7
2014-Nov-21 05:32N 36°08' W 005°10'3 3.3
2014-Nov-21 04:33N 36°07' W 005°14'1 0.6
2014-Nov-21 03:33N 36°07' W 005°14'37312.0
2014-Nov-19 20:33N 36°56' E 002°26'1612.2
2014-Nov-19 19:14N 36°58' E 002°46'912.6
2014-Nov-19 18:31N 36°60' E 002°57'1412.6
2014-Nov-19 17:26N 37°02' E 003°14'1212.4
2014-Nov-19 16:30N 37°03' E 003°29'1212.3
2014-Nov-19 15:29N 37°05' E 003°44'3912.6
2014-Nov-19 12:23N 37°10' E 004°33'1612.7
2014-Nov-19 11:05N 37°12' E 004°53'1112.8
2014-Nov-19 10:14N 37°14' E 005°07'913.1
2014-Nov-19 09:33N 37°15' E 005°18'3812.6
2014-Nov-19 06:33N 37°21' E 006°05'35912.3
2014-Nov-18 01:20N 36°53' E 013°33'1012.6
2014-Nov-18 00:33N 36°51' E 013°45'1312.7
2014-Nov-17 23:33N 36°47' E 014°01'1312.8
2014-Nov-17 22:33N 36°44' E 014°16'1312.6
2014-Nov-17 21:33N 36°40' E 014°31'1513.0
2014-Nov-17 20:26N 36°37' E 014°49'1213.1
2014-Nov-17 19:31N 36°34' E 015°03'41012.4
2014-Nov-16 10:21N 36°49' E 023°34'11611.5
2014-Nov-16 00:14N 38°42' E 024°08'  
Track history (hours):
 
Tides and Currents Weather Stations Pressure Air Temp Water Temp Dewpoint Dewpoint Depression Visibility Wind Speed Wind Dir Waves Ship Positions

Free Maverick

Last reported at 2014-Nov-22 16:20 UTC. Time now 2014-Nov-26 11:17 UTC.
Position N 35°58' W 005°38'.

Length 153 m; draft 9.5 m.

Type: Cargo ship. MMSI: 636013999.

Date/timePositionNaut miles runAvg speedWind from/ knotsBaromVisibWave heightAir tempDewpointWater temp
2014-Nov-22 16:20N 35°58' W 005°38'911.2
2014-Nov-22 15:32N 36°01' W 005°27'9 8.6
2014-Nov-22 14:32N 36°08' W 005°22'0 0.3
2014-Nov-22 13:19N 36°09' W 005°22'0 0.1
2014-Nov-22 12:31N 36°08' W 005°22'0 0.1
2014-Nov-22 11:28N 36°09' W 005°22'0 0.0
2014-Nov-22 10:28N 36°09' W 005°22'0 0.2
2014-Nov-22 09:31N 36°08' W 005°22'0 0.1
2014-Nov-22 08:28N 36°08' W 005°22'0 0.0
2014-Nov-22 07:25N 36°08' W 005°22'0 0.0
2014-Nov-22 06:16N 36°08' W 005°22'0 0.1
2014-Nov-22 04:31N 36°09' W 005°22'0 0.1
2014-Nov-22 03:31N 36°09' W 005°22'0 0.1
2014-Nov-22 02:22N 36°08' W 005°22'0 0.0
2014-Nov-22 01:28N 36°08' W 005°22'0 0.0
2014-Nov-21 23:13N 36°08' W 005°22'0 0.0
2014-Nov-21 22:28N 36°08' W 005°22'0 0.0
2014-Nov-21 18:14N 36°08' W 005°22'3 4.8
2014-Nov-21 17:33N 36°06' W 005°20'8 0.7
2014-Nov-21 05:32N 36°08' W 005°10'3 3.3
2014-Nov-21 04:33N 36°07' W 005°14'1 0.6
2014-Nov-21 03:33N 36°07' W 005°14'37312.0
2014-Nov-19 20:33N 36°56' E 002°26'1612.2
2014-Nov-19 19:14N 36°58' E 002°46'912.6
2014-Nov-19 18:31N 36°60' E 002°57'1412.6
2014-Nov-19 17:26N 37°02' E 003°14'1212.4
2014-Nov-19 16:30N 37°03' E 003°29'1212.3
2014-Nov-19 15:29N 37°05' E 003°44'3912.6
2014-Nov-19 12:23N 37°10' E 004°33'1612.7
2014-Nov-19 11:05N 37°12' E 004°53'1112.8
2014-Nov-19 10:14N 37°14' E 005°07'913.1
2014-Nov-19 09:33N 37°15' E 005°18'3812.6
2014-Nov-19 06:33N 37°21' E 006°05'35912.3
2014-Nov-18 01:20N 36°53' E 013°33'1012.6
2014-Nov-18 00:33N 36°51' E 013°45'1312.7
2014-Nov-17 23:33N 36°47' E 014°01'1312.8
2014-Nov-17 22:33N 36°44' E 014°16'1312.6
2014-Nov-17 21:33N 36°40' E 014°31'1513.0
2014-Nov-17 20:26N 36°37' E 014°49'1213.1
2014-Nov-17 19:31N 36°34' E 015°03'41012.4
2014-Nov-16 10:21N 36°49' E 023°34'11611.5
2014-Nov-16 00:14N 38°42' E 024°08'  

Dump ship's entire track history